createdAt,value
2018-12-10T00:02:30.104Z,65.91
2018-12-10T00:05:02.689Z,65.91
2018-12-10T00:07:35.791Z,65.97
2018-12-10T00:10:08.477Z,65.98
2018-12-10T00:12:41.109Z,65.72
2018-12-10T00:15:13.668Z,66.27
2018-12-10T00:17:46.349Z,66.19
2018-12-10T00:20:18.925Z,66.53
2018-12-10T00:22:51.527Z,66.54
2018-12-10T00:25:24.072Z,66.30
2018-12-10T00:27:56.642Z,66.44
2018-12-10T00:30:29.318Z,66.23
2018-12-10T00:33:01.988Z,66.48
2018-12-10T00:35:34.699Z,66.57
2018-12-10T00:38:07.380Z,66.35
2018-12-10T00:40:39.914Z,66.36
2018-12-10T00:43:12.484Z,66.37
2018-12-10T00:45:45.029Z,66.40
2018-12-10T00:48:17.623Z,66.08
2018-12-10T00:50:50.154Z,66.24
2018-12-10T00:53:22.715Z,66.34
2018-12-10T00:55:55.280Z,66.37
2018-12-10T00:58:27.855Z,65.93
2018-12-10T01:01:00.380Z,66.66
2018-12-10T01:03:32.940Z,66.62
2018-12-10T01:06:05.467Z,66.81
2018-12-10T01:08:38.388Z,66.60
2018-12-10T01:11:10.937Z,66.47
2018-12-10T01:13:43.586Z,66.16
2018-12-10T01:16:16.143Z,66.17
2018-12-10T01:18:48.794Z,66.54
2018-12-10T01:21:21.346Z,66.37
2018-12-10T01:23:53.913Z,66.49
2018-12-10T01:26:26.457Z,66.05
2018-12-10T01:28:59.218Z,66.21
2018-12-10T01:31:31.784Z,66.47
2018-12-10T01:34:04.376Z,66.23
2018-12-10T01:36:36.942Z,66.06
2018-12-10T01:39:09.532Z,66.01
2018-12-10T01:41:43.382Z,66.20
2018-12-10T01:44:16.147Z,66.20
2018-12-10T01:46:48.737Z,66.12
2018-12-10T01:49:21.478Z,66.14
2018-12-10T01:51:54.005Z,66.18
2018-12-10T01:54:26.591Z,66.10
2018-12-10T01:56:59.130Z,66.25
2018-12-10T01:59:31.704Z,66.77
2018-12-10T02:02:04.273Z,66.21
2018-12-10T02:04:36.838Z,66.69
2018-12-10T02:07:09.470Z,66.97
2018-12-10T02:09:42.027Z,67.00
2018-12-10T02:12:14.565Z,67.14
2018-12-10T02:14:47.126Z,66.57
2018-12-10T02:17:19.656Z,66.61
2018-12-10T02:19:52.211Z,66.91
2018-12-10T02:22:24.730Z,66.62
2018-12-10T02:24:57.294Z,66.47
2018-12-10T02:27:29.883Z,66.50
2018-12-10T02:30:02.607Z,66.57
2018-12-10T02:32:35.300Z,66.40
2018-12-10T02:35:07.869Z,66.50
2018-12-10T02:37:40.463Z,66.54
2018-12-10T02:40:13.027Z,66.42
2018-12-10T02:42:45.701Z,67.08
2018-12-10T02:45:18.335Z,67.06
2018-12-10T02:47:51.029Z,66.52
2018-12-10T02:50:23.612Z,66.80
2018-12-10T02:52:56.201Z,66.85
2018-12-10T02:55:28.789Z,66.64
2018-12-10T02:58:01.472Z,66.56
2018-12-10T03:00:34.048Z,66.89
2018-12-10T03:03:06.918Z,66.81
2018-12-10T03:05:39.491Z,66.87
2018-12-10T03:08:12.216Z,66.59
2018-12-10T03:10:44.820Z,66.81
2018-12-10T03:13:17.449Z,66.67
2018-12-10T03:15:50.018Z,66.67
2018-12-10T03:18:22.744Z,66.64
2018-12-10T03:20:55.314Z,66.86
2018-12-10T03:23:28.146Z,66.39
2018-12-10T03:26:00.761Z,66.60
2018-12-10T03:28:33.440Z,66.65
2018-12-10T03:31:06.043Z,65.90
2018-12-10T03:33:38.653Z,66.63
2018-12-10T03:36:11.244Z,66.77
2018-12-10T03:38:43.885Z,66.80
2018-12-10T03:41:16.449Z,66.87
2018-12-10T03:43:49.081Z,66.96
2018-12-10T03:46:21.709Z,66.70
2018-12-10T03:48:54.428Z,66.71
2018-12-10T03:51:26.984Z,67.05
2018-12-10T03:53:59.791Z,66.71
2018-12-10T03:56:32.356Z,66.36
2018-12-10T03:59:04.934Z,67.07
2018-12-10T04:01:37.539Z,66.72
2018-12-10T04:04:10.373Z,66.72
2018-12-10T04:06:43.010Z,66.54
2018-12-10T04:09:15.622Z,66.49
2018-12-10T04:11:48.185Z,66.59
2018-12-10T04:14:20.798Z,66.97
2018-12-10T04:16:53.364Z,66.77
2018-12-10T04:19:25.958Z,66.92
2018-12-10T04:21:58.568Z,66.77
2018-12-10T04:24:31.394Z,66.95
2018-12-10T04:27:03.943Z,67.21
2018-12-10T04:29:36.579Z,66.96
2018-12-10T04:32:09.151Z,67.03
2018-12-10T04:34:41.895Z,66.91
2018-12-10T04:37:14.469Z,67.16
2018-12-10T04:39:47.164Z,67.02
2018-12-10T04:42:19.757Z,67.23
2018-12-10T04:44:52.468Z,66.92
2018-12-10T04:47:25.158Z,67.46
2018-12-10T04:49:57.775Z,67.32
2018-12-10T04:52:30.342Z,67.07
2018-12-10T04:55:03.234Z,66.88
2018-12-10T04:57:35.795Z,66.89
2018-12-10T05:00:08.590Z,66.89
2018-12-10T05:02:41.226Z,67.16
2018-12-10T05:05:13.852Z,66.97
2018-12-10T05:07:46.416Z,66.91
2018-12-10T05:10:19.019Z,66.82
2018-12-10T05:12:51.592Z,66.88
2018-12-10T05:15:24.184Z,66.92
2018-12-10T05:17:56.766Z,66.91
2018-12-10T05:20:29.365Z,67.24
2018-12-10T05:23:02.066Z,67.25
2018-12-10T05:25:34.656Z,67.31
2018-12-10T05:28:07.240Z,67.40
2018-12-10T05:30:39.841Z,67.32
2018-12-10T05:33:12.434Z,67.03
2018-12-10T05:35:45.007Z,67.12
2018-12-10T05:38:17.555Z,66.95
2018-12-10T05:40:50.685Z,67.11
2018-12-10T05:43:23.256Z,66.68
2018-12-10T05:45:55.857Z,66.71
2018-12-10T05:48:28.468Z,66.77
2018-12-10T05:51:01.067Z,66.77
2018-12-10T05:53:33.676Z,66.62
2018-12-10T05:56:06.363Z,66.40
2018-12-10T05:58:38.970Z,66.88
2018-12-10T06:01:11.650Z,66.41
2018-12-10T06:03:44.207Z,66.60
2018-12-10T06:06:17.479Z,66.30
2018-12-10T06:08:50.086Z,66.29
2018-12-10T06:11:22.773Z,66.15
2018-12-10T06:13:55.886Z,66.14
2018-12-10T06:16:28.606Z,66.60
2018-12-10T06:19:01.170Z,66.50
2018-12-10T06:21:33.890Z,66.80
2018-12-10T06:24:06.468Z,66.34
2018-12-10T06:26:39.464Z,66.29
2018-12-10T06:29:12.086Z,66.27
2018-12-10T06:31:45.060Z,66.23
2018-12-10T06:34:18.100Z,66.34
2018-12-10T06:36:51.139Z,66.45
2018-12-10T06:39:23.825Z,66.29
2018-12-10T06:41:56.819Z,66.06
2018-12-10T06:44:29.798Z,66.28
2018-12-10T06:47:02.999Z,65.97
2018-12-10T06:49:35.596Z,66.02
2018-12-10T06:52:08.202Z,66.34
2018-12-10T06:54:40.750Z,66.54
2018-12-10T06:57:13.332Z,66.02
2018-12-10T06:59:45.899Z,66.76
2018-12-10T07:02:20.461Z,66.62
2018-12-10T07:04:53.111Z,66.58
2018-12-10T07:07:25.723Z,66.85
2018-12-10T07:09:58.362Z,66.72
2018-12-10T07:12:30.997Z,66.64
2018-12-10T07:15:04.000Z,66.63
2018-12-10T07:17:36.590Z,66.92
2018-12-10T07:20:09.188Z,66.51
2018-12-10T07:22:41.868Z,66.62
2018-12-10T07:25:14.456Z,66.52
2018-12-10T07:27:47.053Z,65.94
2018-12-10T07:30:19.653Z,66.73
2018-12-10T07:32:52.354Z,66.48
2018-12-10T07:35:24.974Z,66.95
2018-12-10T07:37:57.744Z,66.56
2018-12-10T07:40:30.316Z,66.71
2018-12-10T07:43:02.968Z,66.35
2018-12-10T07:45:35.542Z,66.43
2018-12-10T07:48:08.182Z,66.21
2018-12-10T07:50:40.811Z,66.15
2018-12-10T07:53:13.407Z,66.69
2018-12-10T07:55:46.042Z,66.29
2018-12-10T07:58:18.747Z,66.02
2018-12-10T08:00:51.609Z,66.57
2018-12-10T08:03:24.307Z,66.56
2018-12-10T08:05:56.874Z,66.28
2018-12-10T08:08:29.499Z,66.34
2018-12-10T08:11:03.073Z,66.03
2018-12-10T08:13:35.762Z,66.12
2018-12-10T08:16:08.322Z,65.86
2018-12-10T08:18:40.956Z,66.16
2018-12-10T08:21:13.517Z,65.96
2018-12-10T08:23:46.460Z,65.93
2018-12-10T08:26:19.232Z,65.88
2018-12-10T08:28:58.638Z,65.95
2018-12-10T08:31:26.449Z,65.85
2018-12-10T08:33:59.108Z,65.75
2018-12-10T08:36:31.740Z,65.44
2018-12-10T08:39:06.520Z,65.42
2018-12-10T08:41:39.249Z,65.26
2018-12-10T08:44:11.901Z,65.25
2018-12-10T08:46:44.655Z,65.35
2018-12-10T08:49:17.248Z,65.33
2018-12-10T08:51:49.865Z,65.07
2018-12-10T08:54:22.554Z,65.62
2018-12-10T08:56:55.180Z,65.40
2018-12-10T08:59:27.762Z,65.58
2018-12-10T09:02:00.327Z,64.85
2018-12-10T09:04:33.151Z,65.29
2018-12-10T09:07:05.721Z,65.12
2018-12-10T09:09:38.322Z,65.19
2018-12-10T09:12:11.059Z,65.04
2018-12-10T09:14:43.706Z,65.25
2018-12-10T09:17:16.479Z,64.61
2018-12-10T09:19:49.226Z,65.01
2018-12-10T09:22:21.909Z,65.26
2018-12-10T09:24:54.526Z,64.93
2018-12-10T09:27:27.135Z,64.84
2018-12-10T09:29:59.844Z,65.19
2018-12-10T09:32:32.439Z,64.66
2018-12-10T09:35:05.532Z,64.51
2018-12-10T09:37:38.156Z,64.82
2018-12-10T09:40:10.886Z,64.42
2018-12-10T09:42:43.458Z,64.60
2018-12-10T09:45:16.052Z,64.29
2018-12-10T09:47:48.626Z,64.24
2018-12-10T09:50:21.464Z,64.14
2018-12-10T09:52:54.034Z,63.99
2018-12-10T09:55:26.647Z,63.73
2018-12-10T09:57:59.188Z,63.49
2018-12-10T10:00:32.235Z,63.28
2018-12-10T10:03:04.797Z,63.58
2018-12-10T10:05:37.400Z,63.24
2018-12-10T10:08:09.940Z,63.14
2018-12-10T10:10:42.533Z,63.21
2018-12-10T10:13:15.115Z,63.16
2018-12-10T10:15:47.917Z,63.24
2018-12-10T10:18:20.489Z,61.24
2018-12-10T10:20:53.100Z,63.08
2018-12-10T10:23:25.662Z,62.44
2018-12-10T10:25:58.398Z,62.51
2018-12-10T10:28:31.014Z,62.64
2018-12-10T10:31:03.735Z,62.87
2018-12-10T10:33:36.320Z,62.96
2018-12-10T10:36:08.891Z,63.23
2018-12-10T10:38:41.561Z,63.37
2018-12-10T10:41:14.104Z,63.54
2018-12-10T10:43:47.048Z,64.13
2018-12-10T10:46:19.683Z,64.37
2018-12-10T10:48:52.288Z,64.59
2018-12-10T10:51:24.866Z,64.99
2018-12-10T10:53:57.795Z,64.81
2018-12-10T10:56:30.355Z,65.56
2018-12-10T10:59:03.019Z,65.22
2018-12-10T11:01:41.394Z,65.07
2018-12-10T11:04:14.212Z,65.14
2018-12-10T11:06:46.778Z,64.99
2018-12-10T11:09:19.378Z,65.24
2018-12-10T11:11:51.940Z,65.33
2018-12-10T11:14:24.534Z,64.75
2018-12-10T11:16:57.114Z,65.15
2018-12-10T11:19:29.788Z,65.29
2018-12-10T11:22:02.366Z,65.83
2018-12-10T11:24:35.375Z,65.93
2018-12-10T11:27:07.952Z,65.64
2018-12-10T11:29:40.717Z,64.92
2018-12-10T11:32:13.311Z,65.35
2018-12-10T11:34:46.004Z,65.44
2018-12-10T11:37:18.649Z,64.92
2018-12-10T11:39:51.263Z,64.60
2018-12-10T11:42:23.979Z,64.52
2018-12-10T11:44:56.625Z,64.37
2018-12-10T11:47:29.238Z,64.13
2018-12-10T11:50:01.895Z,63.51
2018-12-10T11:52:34.842Z,63.94
2018-12-10T11:55:08.057Z,63.88
2018-12-10T11:57:41.028Z,64.05
2018-12-10T12:00:14.134Z,63.99
2018-12-10T12:02:47.239Z,63.81
2018-12-10T12:05:20.383Z,63.50
2018-12-10T12:07:54.278Z,63.21
2018-12-10T12:10:27.173Z,63.22
2018-12-10T12:12:59.788Z,63.37
2018-12-10T12:15:32.527Z,63.67
2018-12-10T12:18:05.279Z,63.52
2018-12-10T12:20:37.939Z,61.87
2018-12-10T12:23:10.525Z,62.40
2018-12-10T12:25:43.143Z,62.36
2018-12-10T12:28:15.697Z,62.74
2018-12-10T12:30:48.314Z,62.82
2018-12-10T12:33:21.137Z,62.52
2018-12-10T12:35:53.774Z,62.61
2018-12-10T12:38:26.381Z,62.26
2018-12-10T12:40:59.065Z,62.88
2018-12-10T12:43:31.630Z,63.48
2018-12-10T12:46:04.686Z,63.71
2018-12-10T12:48:37.259Z,63.97
2018-12-10T12:51:09.912Z,64.51
2018-12-10T12:53:42.456Z,64.38
2018-12-10T12:56:15.182Z,64.50
2018-12-10T12:58:47.743Z,64.58
2018-12-10T13:01:20.405Z,64.52
2018-12-10T13:03:52.982Z,64.37
2018-12-10T13:06:25.682Z,64.73
2018-12-10T13:08:58.278Z,65.08
2018-12-10T13:11:30.854Z,65.07
2018-12-10T13:14:03.507Z,65.26
2018-12-10T13:16:36.127Z,66.07
2018-12-10T13:19:08.686Z,66.17
2018-12-10T13:21:41.307Z,66.34
2018-12-10T13:24:13.872Z,65.89
2018-12-10T13:26:46.494Z,66.03
2018-12-10T13:29:19.292Z,66.24
2018-12-10T13:31:51.889Z,66.06
2018-12-10T13:34:24.457Z,66.04
2018-12-10T13:36:57.164Z,65.71
2018-12-10T13:39:29.736Z,65.94
2018-12-10T13:42:02.333Z,66.49
2018-12-10T13:44:34.992Z,65.74
2018-12-10T13:47:07.590Z,66.02
2018-12-10T13:49:40.146Z,66.06
2018-12-10T13:52:12.765Z,65.99
2018-12-10T13:54:45.326Z,66.03
2018-12-10T13:57:17.926Z,66.92
2018-12-10T13:59:50.579Z,67.01
2018-12-10T14:02:23.271Z,66.66
2018-12-10T14:04:55.862Z,67.02
2018-12-10T14:07:28.546Z,67.15
2018-12-10T14:10:01.220Z,67.16
2018-12-10T14:12:33.818Z,67.23
2018-12-10T14:15:06.851Z,66.93
2018-12-10T14:17:39.513Z,67.07
2018-12-10T14:20:12.093Z,67.11
2018-12-10T14:22:44.682Z,67.29
2018-12-10T14:25:25.192Z,67.04
2018-12-10T14:27:57.805Z,67.38
2018-12-10T14:30:30.444Z,67.58
2018-12-10T14:33:03.020Z,67.55
2018-12-10T14:35:35.671Z,68.12
2018-12-10T14:38:08.254Z,67.81
2018-12-10T14:40:40.832Z,67.83
2018-12-10T14:43:13.582Z,67.07
2018-12-10T14:45:46.143Z,67.22
2018-12-10T14:48:18.976Z,67.45
2018-12-10T14:50:51.557Z,67.84
2018-12-10T14:53:24.185Z,67.86
2018-12-10T14:55:56.755Z,67.76
2018-12-10T14:58:29.366Z,67.70
2018-12-10T15:01:02.014Z,67.86
2018-12-10T15:03:34.696Z,67.23
2018-12-10T15:06:07.266Z,67.59
2018-12-10T15:08:39.863Z,67.37
2018-12-10T15:11:12.475Z,67.42
2018-12-10T15:13:45.105Z,67.38
2018-12-10T15:16:18.029Z,67.78
2018-12-10T15:18:50.869Z,67.37
2018-12-10T15:21:23.466Z,67.63
2018-12-10T15:23:56.084Z,67.89
2018-12-10T15:26:28.648Z,67.81
2018-12-10T15:29:01.433Z,67.98
2018-12-10T15:31:33.996Z,67.88
2018-12-10T15:34:06.683Z,67.74
2018-12-10T15:36:39.263Z,68.02
2018-12-10T15:39:12.039Z,67.84
2018-12-10T15:41:44.612Z,68.44
2018-12-10T15:44:17.257Z,68.51
2018-12-10T15:46:49.858Z,68.89
2018-12-10T15:49:22.625Z,68.69
2018-12-10T15:51:55.182Z,68.71
2018-12-10T15:54:28.993Z,69.13
2018-12-10T15:57:01.687Z,68.71
2018-12-10T15:59:34.286Z,69.18
2018-12-10T16:02:06.947Z,68.85
2018-12-10T16:04:39.641Z,68.84
2018-12-10T16:07:13.218Z,69.12
2018-12-10T16:09:45.915Z,68.71
2018-12-10T16:12:18.568Z,68.56
2018-12-10T16:14:51.337Z,68.66
2018-12-10T16:17:23.913Z,68.41
2018-12-10T16:19:56.683Z,68.35
2018-12-10T16:22:29.367Z,68.58
2018-12-10T16:25:02.157Z,68.44
2018-12-10T16:27:34.862Z,68.65
2018-12-10T16:30:08.599Z,68.60
2018-12-10T16:32:41.208Z,68.85
2018-12-10T16:35:14.040Z,68.73
2018-12-10T16:37:46.626Z,68.63
2018-12-10T16:40:19.307Z,68.73
2018-12-10T16:42:52.160Z,69.24
2018-12-10T16:45:24.874Z,68.80
2018-12-10T16:47:57.459Z,68.71
2018-12-10T16:50:30.516Z,69.25
2018-12-10T16:53:03.501Z,69.04
2018-12-10T16:55:36.091Z,68.78
2018-12-10T16:58:08.657Z,68.74
2018-12-10T17:00:41.412Z,68.64
2018-12-10T17:03:13.979Z,68.59
2018-12-10T17:05:46.665Z,68.30
2018-12-10T17:08:19.218Z,68.21
2018-12-10T17:10:51.925Z,67.96
2018-12-10T17:13:24.620Z,67.95
2018-12-10T17:15:57.227Z,67.97
2018-12-10T17:18:29.797Z,68.34
2018-12-10T17:21:02.401Z,68.64
2018-12-10T17:23:34.951Z,68.74
2018-12-10T17:26:07.603Z,68.77
2018-12-10T17:28:40.203Z,68.98
2018-12-10T17:31:12.809Z,68.78
2018-12-10T17:33:45.424Z,68.94
2018-12-10T17:36:18.248Z,69.09
2018-12-10T17:38:51.409Z,69.02
2018-12-10T17:41:24.777Z,68.84
2018-12-10T17:43:57.521Z,68.68
2018-12-10T17:46:30.278Z,68.90
2018-12-10T17:49:02.847Z,69.14
2018-12-10T17:51:35.518Z,69.57
2018-12-10T17:54:08.255Z,69.79
2018-12-10T17:56:40.919Z,70.06
2018-12-10T17:59:13.666Z,69.87
2018-12-10T18:01:46.753Z,69.72
2018-12-10T18:04:19.399Z,69.59
2018-12-10T18:06:52.074Z,69.75
2018-12-10T18:09:24.646Z,69.75
2018-12-10T18:11:57.235Z,69.56
2018-12-10T18:14:29.936Z,69.52
2018-12-10T18:17:02.521Z,69.50
2018-12-10T18:19:35.134Z,69.32
2018-12-10T18:22:07.740Z,69.70
2018-12-10T18:24:40.329Z,69.62
2018-12-10T18:27:12.922Z,69.29
2018-12-10T18:29:45.486Z,69.43
2018-12-10T18:32:18.083Z,69.35
2018-12-10T18:34:50.662Z,69.04
2018-12-10T18:37:23.275Z,69.17
2018-12-10T18:39:55.838Z,69.10
2018-12-10T18:42:28.446Z,69.42
2018-12-10T18:45:01.024Z,69.39
2018-12-10T18:47:33.721Z,69.50
2018-12-10T18:50:06.418Z,69.16
2018-12-10T18:52:39.107Z,69.21
2018-12-10T18:55:11.660Z,69.33
2018-12-10T18:57:44.462Z,69.24
2018-12-10T19:00:17.011Z,69.16
2018-12-10T19:02:49.719Z,69.53
2018-12-10T19:05:24.350Z,69.35
2018-12-10T19:07:57.002Z,69.42
2018-12-10T19:10:29.561Z,69.36
2018-12-10T19:13:02.321Z,69.16
2018-12-10T19:15:34.883Z,69.49
2018-12-10T19:18:07.492Z,69.74
2018-12-10T19:20:40.062Z,69.27
2018-12-10T19:23:12.639Z,69.41
2018-12-10T19:25:45.201Z,69.81
2018-12-10T19:28:17.794Z,69.58
2018-12-10T19:30:50.365Z,69.62
2018-12-10T19:33:22.959Z,69.92
2018-12-10T19:35:55.527Z,69.67
2018-12-10T19:38:28.115Z,69.64
2018-12-10T19:41:00.659Z,69.45
2018-12-10T19:43:33.355Z,69.64
2018-12-10T19:46:05.927Z,69.42
2018-12-10T19:48:38.544Z,69.84
2018-12-10T19:51:11.281Z,69.63
2018-12-10T19:53:43.958Z,69.70
2018-12-10T19:56:16.637Z,69.52
2018-12-10T19:58:49.497Z,69.48
2018-12-10T20:01:22.091Z,69.15
2018-12-10T20:03:55.229Z,69.41
2018-12-10T20:06:31.263Z,69.30
2018-12-10T20:09:06.516Z,69.31
2018-12-10T20:11:39.072Z,68.99
2018-12-10T20:14:11.693Z,69.27
2018-12-10T20:16:44.279Z,69.35
2018-12-10T20:19:16.897Z,69.42
2018-12-10T20:21:49.457Z,69.21
2018-12-10T20:24:22.102Z,69.19
2018-12-10T20:26:54.740Z,69.37
2018-12-10T20:29:27.420Z,69.43
2018-12-10T20:32:00.019Z,69.45
2018-12-10T20:34:32.707Z,69.24
2018-12-10T20:37:05.289Z,69.25
2018-12-10T20:39:38.085Z,69.07
2018-12-10T20:42:10.629Z,69.49
2018-12-10T20:44:43.222Z,69.28
2018-12-10T20:47:15.794Z,69.35
2018-12-10T20:49:48.483Z,69.47
2018-12-10T20:52:21.033Z,69.24
2018-12-10T20:54:53.694Z,69.04
2018-12-10T20:57:26.295Z,69.32
2018-12-10T20:59:58.888Z,69.33
2018-12-10T21:02:31.457Z,69.26
2018-12-10T21:05:04.252Z,69.09
2018-12-10T21:07:36.825Z,68.93
2018-12-10T21:10:09.512Z,68.62
2018-12-10T21:12:42.211Z,69.11
2018-12-10T21:15:14.848Z,69.17
2018-12-10T21:17:47.437Z,69.40
2018-12-10T21:20:20.098Z,69.33
2018-12-10T21:22:52.673Z,69.26
2018-12-10T21:25:25.302Z,69.36
2018-12-10T21:27:57.907Z,69.22
2018-12-10T21:30:30.764Z,69.20
2018-12-10T21:33:03.358Z,69.31
2018-12-10T21:35:36.152Z,69.23
2018-12-10T21:38:08.716Z,69.14
2018-12-10T21:40:42.306Z,69.01
2018-12-10T21:43:14.946Z,69.13
2018-12-10T21:45:47.760Z,69.25
2018-12-10T21:48:20.313Z,69.26
2018-12-10T21:50:53.339Z,69.00
2018-12-10T21:53:25.920Z,68.99
2018-12-10T21:55:58.613Z,68.71
2018-12-10T21:58:31.193Z,68.87
2018-12-10T22:01:03.864Z,68.78
2018-12-10T22:03:36.438Z,68.85
2018-12-10T22:06:09.506Z,68.83
2018-12-10T22:08:42.584Z,68.69
2018-12-10T22:11:15.277Z,68.55
2018-12-10T22:13:47.840Z,68.77
2018-12-10T22:16:20.452Z,68.88
2018-12-10T22:18:53.004Z,68.97
2018-12-10T22:21:25.729Z,68.83
2018-12-10T22:23:58.275Z,68.98
2018-12-10T22:26:30.881Z,68.98
2018-12-10T22:29:03.497Z,68.95
2018-12-10T22:31:36.179Z,68.79
2018-12-10T22:34:08.770Z,68.83
2018-12-10T22:36:41.399Z,68.86
2018-12-10T22:39:13.971Z,68.77
2018-12-10T22:41:46.568Z,68.95
2018-12-10T22:44:19.167Z,68.87
2018-12-10T22:46:51.794Z,68.68
2018-12-10T22:49:24.358Z,68.78
2018-12-10T22:51:56.966Z,68.75
2018-12-10T22:54:29.529Z,68.77
2018-12-10T22:57:02.234Z,68.85
2018-12-10T22:59:34.801Z,68.73
2018-12-10T23:02:07.395Z,68.65
2018-12-10T23:04:39.993Z,68.36
2018-12-10T23:07:12.591Z,68.67
2018-12-10T23:09:45.155Z,68.81
2018-12-10T23:12:17.845Z,68.75
2018-12-10T23:14:50.409Z,68.56
2018-12-10T23:17:23.090Z,68.61
2018-12-10T23:19:55.693Z,68.53
2018-12-10T23:22:28.374Z,68.69
2018-12-10T23:25:00.926Z,68.42
2018-12-10T23:27:33.692Z,68.66
2018-12-10T23:30:06.387Z,68.24
2018-12-10T23:32:39.058Z,68.73
2018-12-10T23:35:11.623Z,68.65
2018-12-10T23:37:44.325Z,68.45
2018-12-10T23:40:16.893Z,68.79
2018-12-10T23:42:55.130Z,68.31
2018-12-10T23:45:27.684Z,68.64
2018-12-10T23:48:00.277Z,68.36
2018-12-10T23:50:32.835Z,68.52
2018-12-10T23:53:05.501Z,68.48
2018-12-10T23:55:38.059Z,68.27
2018-12-10T23:58:10.752Z,68.35
